createdAt,value
2023-01-28T00:01:18.648Z,82.13
2023-01-28T00:03:45.231Z,82.61
2023-01-28T00:06:13.639Z,83.29
2023-01-28T00:08:42.316Z,82.63
2023-01-28T00:11:11.768Z,82.66
2023-01-28T00:13:39.018Z,82.37
2023-01-28T00:16:08.406Z,82.55
2023-01-28T00:18:35.292Z,82.21
2023-01-28T00:21:03.820Z,82.12
2023-01-28T00:23:32.989Z,82.57
2023-01-28T00:26:02.515Z,82.37
2023-01-28T00:28:29.443Z,82.34
2023-01-28T00:30:56.753Z,82.41
2023-01-28T00:33:23.730Z,82.18
2023-01-28T00:35:57.913Z,81.21
2023-01-28T00:38:24.561Z,81.44
2023-01-28T00:40:51.209Z,81.44
2023-01-28T00:43:19.587Z,81.54
2023-01-28T00:45:48.490Z,80.49
2023-01-28T00:48:16.522Z,81.04
2023-01-28T00:50:44.505Z,81.61
2023-01-28T00:53:11.117Z,81.49
2023-01-28T00:55:37.622Z,81.45
2023-01-28T00:58:04.217Z,80.53
2023-01-28T01:00:32.104Z,81.13
2023-01-28T01:02:59.711Z,80.85
2023-01-28T01:05:26.342Z,81.02
2023-01-28T01:07:52.981Z,81.37
2023-01-28T01:10:20.087Z,81.63
2023-01-28T01:12:46.894Z,81.35
2023-01-28T01:15:14.964Z,81.31
2023-01-28T01:17:44.769Z,81.06
2023-01-28T01:20:14.299Z,81.29
2023-01-28T01:22:41.046Z,80.57
2023-01-28T01:25:08.646Z,80.85
2023-01-28T01:27:35.541Z,81.52
2023-01-28T01:30:02.321Z,80.87
2023-01-28T01:32:30.570Z,81.30
2023-01-28T01:34:58.568Z,81.46
2023-01-28T01:37:25.791Z,82.07
2023-01-28T01:39:52.387Z,81.90
2023-01-28T01:42:19.361Z,81.90
2023-01-28T01:45:01.221Z,82.22
2023-01-28T01:47:36.611Z,82.64
2023-01-28T01:50:11.914Z,82.86
2023-01-28T01:52:40.479Z,82.92
2023-01-28T01:55:12.771Z,82.36
2023-01-28T01:57:40.525Z,81.89
2023-01-28T02:00:09.605Z,82.17
2023-01-28T02:02:47.196Z,82.49
2023-01-28T02:05:19.684Z,82.56
2023-01-28T02:07:48.365Z,82.60
2023-01-28T02:10:18.294Z,83.11
2023-01-28T02:12:50.237Z,82.66
2023-01-28T02:15:18.858Z,82.44
2023-01-28T02:17:46.482Z,82.62
2023-01-28T02:20:21.700Z,82.78
2023-01-28T02:23:26.942Z,82.64
2023-01-28T02:26:31.054Z,83.05
2023-01-28T02:29:10.516Z,82.92
2023-01-28T02:31:42.379Z,83.10
2023-01-28T02:34:17.266Z,83.01
2023-01-28T02:36:51.256Z,83.26
2023-01-28T02:39:23.175Z,82.89
2023-01-28T02:41:53.994Z,82.79
2023-01-28T02:44:22.559Z,82.37
2023-01-28T02:46:52.105Z,82.67
2023-01-28T02:49:23.217Z,82.68
2023-01-28T02:51:57.209Z,82.70
2023-01-28T02:54:35.762Z,82.62
2023-01-28T02:57:12.874Z,83.46
2023-01-28T02:59:45.668Z,83.62
2023-01-28T03:02:20.192Z,83.74
2023-01-28T03:04:52.313Z,84.23
2023-01-28T03:07:20.187Z,84.61
2023-01-28T03:09:49.612Z,85.16
2023-01-28T03:12:21.728Z,85.77
2023-01-28T03:14:53.550Z,85.63
2023-01-28T03:17:26.764Z,85.98
2023-01-28T03:19:54.511Z,86.10
2023-01-28T03:22:22.287Z,86.14
2023-01-28T03:24:52.779Z,86.80
2023-01-28T03:27:29.370Z,86.65
2023-01-28T03:30:09.144Z,86.67
2023-01-28T03:32:38.019Z,87.09
2023-01-28T03:35:08.541Z,87.55
2023-01-28T03:37:35.623Z,88.08
2023-01-28T03:40:12.311Z,88.16
2023-01-28T03:42:38.971Z,88.06
2023-01-28T03:45:14.123Z,88.37
2023-01-28T03:47:41.035Z,88.61
2023-01-28T03:50:10.769Z,88.26
2023-01-28T03:52:50.313Z,88.32
2023-01-28T03:55:29.718Z,88.68
2023-01-28T03:57:56.366Z,88.62
2023-01-28T04:00:24.872Z,88.36
2023-01-28T04:02:51.801Z,88.44
2023-01-28T04:05:20.339Z,88.49
2023-01-28T04:07:48.692Z,88.53
2023-01-28T04:10:20.604Z,88.55
2023-01-28T04:12:54.899Z,88.31
2023-01-28T04:15:24.925Z,88.78
2023-01-28T04:17:51.458Z,88.18
2023-01-28T04:20:29.626Z,88.44
2023-01-28T04:22:59.132Z,88.33
2023-01-28T04:25:25.793Z,88.17
2023-01-28T04:27:52.710Z,88.46
2023-01-28T04:30:26.697Z,88.75
2023-01-28T04:33:23.327Z,89.21
2023-01-28T04:36:22.436Z,89.59
2023-01-28T04:39:05.308Z,88.83
2023-01-28T04:41:46.008Z,89.47
2023-01-28T04:44:21.689Z,89.79
2023-01-28T04:47:03.485Z,90.19
2023-01-28T04:49:54.960Z,90.34
2023-01-28T04:52:44.655Z,90.38
2023-01-28T04:55:18.880Z,89.71
2023-01-28T04:57:46.846Z,89.92
2023-01-28T05:00:14.076Z,90.62
2023-01-28T05:02:42.038Z,91.02
2023-01-28T05:05:09.335Z,91.42
2023-01-28T05:07:50.081Z,91.63
2023-01-28T05:10:16.743Z,91.35
2023-01-28T05:12:43.979Z,91.40
2023-01-28T05:15:11.512Z,91.21
2023-01-28T05:17:38.130Z,90.88
2023-01-28T05:20:07.614Z,90.73
2023-01-28T05:22:34.298Z,90.73
2023-01-28T05:25:15.806Z,91.17
2023-01-28T05:27:42.688Z,91.24
2023-01-28T05:30:10.730Z,91.55
2023-01-28T05:32:37.408Z,91.71
2023-01-28T05:35:06.270Z,92.38
2023-01-28T05:37:33.879Z,91.82
2023-01-28T05:40:00.935Z,92.47
2023-01-28T05:42:28.406Z,91.96
2023-01-28T05:45:06.794Z,92.42
2023-01-28T05:47:38.586Z,92.30
2023-01-28T05:50:20.833Z,92.13
2023-01-28T05:53:08.116Z,92.80
2023-01-28T05:55:36.106Z,92.30
2023-01-28T05:58:02.949Z,92.59
2023-01-28T06:00:29.679Z,92.79
2023-01-28T06:02:56.291Z,92.91
2023-01-28T06:05:25.138Z,93.32
2023-01-28T06:07:52.306Z,93.08
2023-01-28T06:10:19.954Z,92.67
2023-01-28T06:12:47.212Z,92.95
2023-01-28T06:15:32.854Z,93.17
2023-01-28T06:18:12.444Z,94.04
2023-01-28T06:20:40.457Z,93.56
2023-01-28T06:23:07.169Z,93.58
2023-01-28T06:25:33.860Z,93.45
2023-01-28T06:28:06.933Z,93.66
2023-01-28T06:30:33.680Z,93.76
2023-01-28T06:33:00.278Z,94.01
2023-01-28T06:35:27.376Z,93.79
2023-01-28T06:37:55.474Z,94.43
2023-01-28T06:40:22.078Z,94.10
2023-01-28T06:42:48.925Z,94.41
2023-01-28T06:45:15.655Z,94.23
2023-01-28T06:47:42.182Z,94.42
2023-01-28T06:50:10.269Z,94.09
2023-01-28T06:52:37.024Z,94.10
2023-01-28T06:55:05.720Z,94.07
2023-01-28T06:57:32.468Z,94.11
2023-01-28T06:59:59.157Z,94.16
2023-01-28T07:02:27.683Z,93.95
2023-01-28T07:04:54.487Z,93.77
2023-01-28T07:07:21.124Z,93.16
2023-01-28T07:09:47.843Z,93.59
2023-01-28T07:12:15.791Z,93.64
2023-01-28T07:14:42.539Z,93.50
2023-01-28T07:17:09.253Z,93.55
2023-01-28T07:19:36.299Z,94.00
2023-01-28T07:22:02.924Z,93.34
2023-01-28T07:24:30.014Z,93.63
2023-01-28T07:26:56.740Z,93.83
2023-01-28T07:29:24.732Z,93.38
2023-01-28T07:31:51.446Z,92.92
2023-01-28T07:34:18.182Z,93.36
2023-01-28T07:36:44.726Z,93.31
2023-01-28T07:39:11.315Z,93.36
2023-01-28T07:41:38.107Z,92.89
2023-01-28T07:44:06.215Z,92.80
2023-01-28T07:46:34.131Z,92.60
2023-01-28T07:49:00.766Z,92.55
2023-01-28T07:51:27.679Z,92.45
2023-01-28T07:53:54.301Z,92.74
2023-01-28T07:56:20.885Z,92.52
2023-01-28T07:58:49.676Z,92.84
2023-01-28T08:01:16.268Z,92.38
2023-01-28T08:03:44.283Z,92.42
2023-01-28T08:06:10.796Z,92.42
2023-01-28T08:08:37.360Z,92.26
2023-01-28T08:11:07.358Z,92.06
2023-01-28T08:13:34.056Z,92.14
2023-01-28T08:16:00.642Z,91.79
2023-01-28T08:18:27.309Z,92.47
2023-01-28T08:20:56.938Z,91.88
2023-01-28T08:23:24.509Z,91.89
2023-01-28T08:25:51.219Z,92.14
2023-01-28T08:28:18.236Z,92.33
2023-01-28T08:30:45.568Z,92.47
2023-01-28T08:33:14.007Z,92.65
2023-01-28T08:35:41.043Z,92.37
2023-01-28T08:38:11.840Z,92.63
2023-01-28T08:40:38.606Z,91.95
2023-01-28T08:43:06.493Z,92.09
2023-01-28T08:45:33.203Z,92.41
2023-01-28T08:48:01.333Z,92.05
2023-01-28T08:50:29.745Z,91.90
2023-01-28T08:52:58.132Z,91.39
2023-01-28T08:55:27.726Z,90.19
2023-01-28T08:57:56.003Z,90.19
2023-01-28T09:00:24.423Z,90.52
2023-01-28T09:02:51.982Z,90.39
2023-01-28T09:05:19.137Z,90.45
2023-01-28T09:07:45.728Z,90.49
2023-01-28T09:10:13.122Z,90.60
2023-01-28T09:12:41.427Z,90.61
2023-01-28T09:15:11.381Z,90.77
2023-01-28T09:17:38.339Z,90.28
2023-01-28T09:20:06.542Z,90.12
2023-01-28T09:22:33.201Z,90.37
2023-01-28T09:24:59.973Z,89.86
2023-01-28T09:27:26.772Z,89.87
2023-01-28T09:29:54.815Z,89.47
2023-01-28T09:32:21.459Z,88.57
2023-01-28T09:34:48.022Z,88.32
2023-01-28T09:37:14.644Z,88.26
2023-01-28T09:39:41.536Z,88.21
2023-01-28T09:42:27.847Z,87.80
2023-01-28T09:45:05.464Z,85.70
2023-01-28T09:47:35.581Z,86.47
2023-01-28T09:50:07.284Z,87.07
2023-01-28T09:52:35.229Z,87.31
2023-01-28T09:55:04.873Z,87.93
2023-01-28T09:57:38.349Z,87.71
2023-01-28T10:00:15.730Z,86.86
2023-01-28T10:02:58.400Z,86.82
2023-01-28T10:05:33.963Z,86.27
2023-01-28T10:08:13.389Z,86.18
2023-01-28T10:10:44.409Z,85.12
2023-01-28T10:13:29.339Z,83.69
2023-01-28T10:16:19.098Z,81.64
2023-01-28T10:18:50.736Z,82.08
2023-01-28T10:21:24.523Z,81.47
2023-01-28T10:23:57.789Z,80.87
2023-01-28T10:26:27.730Z,80.81
2023-01-28T10:28:57.578Z,79.14
2023-01-28T10:31:32.126Z,77.92
2023-01-28T10:33:59.551Z,76.56
2023-01-28T10:36:26.606Z,75.26
2023-01-28T10:38:53.238Z,75.00
2023-01-28T10:41:22.191Z,73.84
2023-01-28T10:43:50.183Z,73.44
2023-01-28T10:46:21.764Z,73.73
2023-01-28T10:48:56.461Z,74.23
2023-01-28T10:51:33.958Z,73.37
2023-01-28T10:54:00.838Z,72.04
2023-01-28T10:56:29.931Z,70.22
2023-01-28T10:59:00.462Z,69.77
2023-01-28T11:01:39.498Z,69.96
2023-01-28T11:04:17.132Z,68.09
2023-01-28T11:06:53.042Z,68.90
2023-01-28T11:09:25.008Z,69.68
2023-01-28T11:11:51.423Z,69.62
2023-01-28T11:14:23.801Z,70.27
2023-01-28T11:16:51.987Z,68.90
2023-01-28T11:21:55.193Z,70.10
2023-01-28T11:24:26.012Z,69.99
2023-01-28T11:26:56.177Z,69.97
2023-01-28T11:29:26.760Z,70.19
2023-01-28T11:31:53.857Z,70.10
2023-01-28T11:34:27.231Z,70.26
2023-01-28T11:37:01.002Z,68.23
2023-01-28T11:39:27.761Z,67.48
2023-01-28T11:41:54.466Z,67.64
2023-01-28T11:44:23.868Z,68.10
2023-01-28T11:47:05.115Z,67.46
2023-01-28T11:49:49.490Z,67.83
2023-01-28T11:52:22.993Z,67.07
2023-01-28T11:55:01.326Z,66.64
2023-01-28T11:57:37.179Z,66.27
2023-01-28T12:00:28.331Z,67.15
2023-01-28T12:03:09.292Z,66.18
2023-01-28T12:05:49.246Z,64.69
2023-01-28T12:08:22.509Z,65.96
2023-01-28T12:11:03.756Z,65.95
2023-01-28T12:13:46.442Z,65.19
2023-01-28T12:16:30.535Z,65.50
2023-01-28T12:19:22.806Z,66.64
2023-01-28T12:22:01.036Z,67.46
2023-01-28T12:24:41.766Z,67.77
2023-01-28T12:27:23.957Z,66.58
2023-01-28T12:30:01.217Z,66.16
2023-01-28T12:32:41.378Z,63.85
2023-01-28T12:35:35.308Z,63.57
2023-01-28T12:38:14.692Z,64.83
2023-01-28T12:40:55.259Z,64.48
2023-01-28T12:43:28.849Z,65.41
2023-01-28T12:46:00.936Z,64.22
2023-01-28T12:48:34.088Z,64.94
2023-01-28T12:51:08.139Z,63.98
2023-01-28T12:53:43.531Z,64.55
2023-01-28T12:56:15.441Z,63.52
2023-01-28T12:58:48.878Z,62.37
2023-01-28T13:01:21.787Z,63.28
2023-01-28T13:03:54.881Z,62.65
2023-01-28T13:06:27.807Z,62.58
2023-01-28T13:09:01.011Z,61.38
2023-01-28T13:11:34.161Z,62.85
2023-01-28T13:14:02.012Z,62.98
2023-01-28T13:16:37.294Z,63.21
2023-01-28T13:19:07.922Z,61.93
2023-01-28T13:21:47.657Z,62.07
2023-01-28T13:24:32.340Z,61.27
2023-01-28T13:27:09.811Z,62.00
2023-01-28T13:29:36.505Z,62.53
2023-01-28T13:32:24.294Z,62.39
2023-01-28T13:34:58.331Z,62.81
2023-01-28T13:37:30.660Z,62.50
2023-01-28T13:40:06.077Z,61.51
2023-01-28T13:42:33.097Z,61.04
2023-01-28T13:45:20.836Z,61.77
2023-01-28T13:47:51.302Z,59.68
2023-01-28T13:50:21.528Z,60.53
2023-01-28T13:52:55.039Z,61.32
2023-01-28T13:55:42.656Z,61.77
2023-01-28T13:58:31.022Z,61.12
2023-01-28T14:01:24.208Z,62.35
2023-01-28T14:04:26.751Z,59.15
2023-01-28T14:07:08.465Z,60.52
2023-01-28T14:09:53.965Z,60.11
2023-01-28T14:12:58.037Z,59.65
2023-01-28T14:15:56.130Z,59.60
2023-01-28T14:18:27.721Z,58.79
2023-01-28T14:20:56.374Z,58.92
2023-01-28T14:23:24.249Z,58.65
2023-01-28T14:26:04.971Z,59.16
2023-01-28T14:28:43.499Z,58.24
2023-01-28T14:31:15.644Z,58.14
2023-01-28T14:33:43.484Z,59.34
2023-01-28T14:36:11.650Z,58.92
2023-01-28T14:38:41.167Z,59.88
2023-01-28T14:41:09.414Z,59.74
2023-01-28T14:43:38.681Z,59.85
2023-01-28T14:46:16.646Z,60.31
2023-01-28T14:48:51.638Z,58.96
2023-01-28T14:51:37.550Z,59.32
2023-01-28T14:54:37.391Z,59.95
2023-01-28T14:57:18.228Z,59.67
2023-01-28T14:59:49.390Z,59.72
2023-01-28T15:02:20.037Z,60.53
2023-01-28T15:04:46.907Z,60.14
2023-01-28T15:07:18.889Z,59.31
2023-01-28T15:09:45.376Z,59.17
2023-01-28T15:12:14.293Z,59.58
2023-01-28T15:14:41.739Z,60.13
2023-01-28T15:17:23.186Z,60.56
2023-01-28T15:19:50.193Z,60.28
2023-01-28T15:22:17.116Z,60.95
2023-01-28T15:24:43.824Z,60.44
2023-01-28T15:27:17.336Z,60.21
2023-01-28T15:29:51.783Z,60.53
2023-01-28T15:32:23.994Z,61.12
2023-01-28T15:34:50.614Z,60.83
2023-01-28T15:37:19.140Z,61.77
2023-01-28T15:39:48.632Z,61.86
2023-01-28T15:42:20.614Z,62.05
2023-01-28T15:44:48.004Z,62.70
2023-01-28T15:47:17.731Z,63.26
2023-01-28T15:49:48.997Z,63.69
2023-01-28T15:52:16.055Z,63.74
2023-01-28T15:54:45.705Z,64.59
2023-01-28T15:57:19.430Z,65.01
2023-01-28T15:59:46.377Z,65.81
2023-01-28T16:02:18.566Z,65.94
2023-01-28T16:04:57.503Z,66.59
2023-01-28T16:07:24.774Z,66.60
2023-01-28T16:09:52.587Z,66.60
2023-01-28T16:12:19.858Z,66.88
2023-01-28T16:14:51.189Z,67.18
2023-01-28T16:17:21.222Z,67.56
2023-01-28T16:19:50.188Z,67.37
2023-01-28T16:22:27.082Z,69.20
2023-01-28T16:24:54.485Z,69.69
2023-01-28T16:27:22.637Z,69.92
2023-01-28T16:29:49.362Z,70.22
2023-01-28T16:32:28.674Z,70.37
2023-01-28T16:34:55.604Z,71.29
2023-01-28T16:37:23.490Z,71.68
2023-01-28T16:39:50.124Z,71.87
2023-01-28T16:42:16.986Z,72.22
2023-01-28T16:44:43.619Z,72.56
2023-01-28T16:47:10.348Z,73.48
2023-01-28T16:49:37.082Z,73.44
2023-01-28T16:52:04.876Z,73.85
2023-01-28T16:54:33.952Z,74.54
2023-01-28T16:57:00.794Z,74.61
2023-01-28T16:59:27.468Z,74.78
2023-01-28T17:01:54.022Z,75.91
2023-01-28T17:04:20.672Z,76.42
2023-01-28T17:06:47.408Z,76.50
2023-01-28T17:09:15.073Z,77.76
2023-01-28T17:11:43.214Z,77.78
2023-01-28T17:14:10.348Z,78.29
2023-01-28T17:16:37.158Z,78.35
2023-01-28T17:19:04.072Z,79.01
2023-01-28T17:21:30.616Z,79.14
2023-01-28T17:23:59.047Z,79.94
2023-01-28T17:26:26.301Z,80.01
2023-01-28T17:28:54.384Z,80.48
2023-01-28T17:31:21.944Z,80.21
2023-01-28T17:33:53.692Z,81.02
2023-01-28T17:36:20.560Z,80.16
2023-01-28T17:38:47.137Z,80.77
2023-01-28T17:41:14.615Z,80.84
2023-01-28T17:43:41.201Z,80.39
2023-01-28T17:46:13.756Z,81.29
2023-01-28T17:48:40.752Z,81.74
2023-01-28T17:51:07.373Z,81.52
2023-01-28T17:53:34.130Z,80.61
2023-01-28T17:56:00.837Z,81.01
2023-01-28T17:58:27.500Z,80.93
2023-01-28T18:00:54.143Z,81.07
2023-01-28T18:03:22.098Z,80.72
2023-01-28T18:05:57.336Z,80.52
2023-01-28T18:08:24.212Z,80.65
2023-01-28T18:10:50.857Z,81.43
2023-01-28T18:13:17.496Z,81.75
2023-01-28T18:15:44.109Z,81.79
2023-01-28T18:18:10.957Z,82.31
2023-01-28T18:20:38.850Z,82.13
2023-01-28T18:23:05.462Z,82.65
2023-01-28T18:25:32.016Z,81.95
2023-01-28T18:27:58.631Z,82.66
2023-01-28T18:30:25.222Z,82.41
2023-01-28T18:32:52.128Z,82.13
2023-01-28T18:35:19.070Z,82.39
2023-01-28T18:37:47.257Z,83.12
2023-01-28T18:40:13.944Z,82.71
2023-01-28T18:42:40.547Z,83.48
2023-01-28T18:45:07.968Z,83.74
2023-01-28T18:47:34.813Z,83.65
2023-01-28T18:50:01.332Z,84.14
2023-01-28T18:52:27.924Z,84.61
2023-01-28T18:54:56.020Z,84.33
2023-01-28T18:57:22.655Z,84.81
2023-01-28T18:59:49.186Z,84.23
2023-01-28T19:02:15.823Z,84.61
2023-01-28T19:04:42.331Z,84.17
2023-01-28T19:07:11.403Z,84.45
2023-01-28T19:09:38.233Z,84.14
2023-01-28T19:12:06.351Z,83.54
2023-01-28T19:14:32.933Z,83.77
2023-01-28T19:16:59.551Z,83.93
2023-01-28T19:19:26.149Z,83.81
2023-01-28T19:21:52.908Z,84.74
2023-01-28T19:24:19.563Z,84.91
2023-01-28T19:26:46.207Z,85.21
2023-01-28T19:29:15.886Z,85.63
2023-01-28T19:31:45.680Z,85.54
2023-01-28T19:34:12.469Z,85.79
2023-01-28T19:36:38.999Z,85.50
2023-01-28T19:39:07.340Z,85.86
2023-01-28T19:41:34.343Z,86.12
2023-01-28T19:44:00.972Z,85.27
2023-01-28T19:46:29.076Z,85.52
2023-01-28T19:48:55.858Z,85.75
2023-01-28T19:51:23.286Z,85.40
2023-01-28T19:53:51.336Z,85.90
2023-01-28T19:56:18.962Z,85.84
2023-01-28T19:58:46.446Z,86.12
2023-01-28T20:01:14.833Z,86.39
2023-01-28T20:03:43.169Z,86.30
2023-01-28T20:06:13.119Z,87.09
2023-01-28T20:08:39.709Z,87.10
2023-01-28T20:11:10.284Z,87.43
2023-01-28T20:13:38.689Z,87.21
2023-01-28T20:16:08.108Z,87.17
2023-01-28T20:18:35.449Z,87.39
2023-01-28T20:21:03.516Z,87.06
2023-01-28T20:23:30.135Z,87.37
2023-01-28T20:25:57.346Z,87.51
2023-01-28T20:28:25.244Z,87.77
2023-01-28T20:30:52.998Z,87.97
2023-01-28T20:33:20.204Z,88.07
2023-01-28T20:35:48.999Z,87.78
2023-01-28T20:38:25.303Z,87.33
2023-01-28T20:41:00.185Z,87.75
2023-01-28T20:43:28.866Z,87.43
2023-01-28T20:46:06.603Z,87.51
2023-01-28T20:48:41.590Z,87.71
2023-01-28T20:54:23.978Z,87.71
2023-01-28T20:56:55.717Z,88.13
2023-01-28T20:59:24.867Z,87.96
2023-01-28T21:02:09.073Z,87.90
2023-01-28T21:04:45.943Z,88.31
2023-01-28T21:07:16.057Z,87.91
2023-01-28T21:09:44.254Z,87.73
2023-01-28T21:12:11.262Z,87.94
2023-01-28T21:14:44.714Z,88.09
2023-01-28T21:17:18.105Z,88.09
2023-01-28T21:20:32.892Z,88.45
2023-01-28T21:23:28.992Z,88.18
2023-01-28T21:31:57.974Z,88.42
2023-01-28T21:34:31.626Z,88.43
2023-01-28T21:40:06.534Z,89.44
2023-01-28T21:43:01.715Z,89.45
